Airfield :







YOU CAN JOIN US ON...

 
LOGIN :

Register | Disclaimer

   EN    FR    IT 

 









Legend :    VFR   Marginal VFR   IFR   Intensive IFR   Very Intensive IFR
Visi :
Ceiling :
>= 8 km
>= 3000ft
5 to 8 km
1000 to 3000 ft
1500m to 5 km
500 to 1000 ft
800 to 1500m
200 to 500 ft
< 800m
< 200 ft
Symbols :   Thunderstorms  Fog  Heavy snow  Heavy precipitations  Wind > 20 kt






- Airport Elevation : 108 ft
- IATA code : YAY


CYAY - St Anthony

CURRENT METAR :
  • 032000Z AUTO 02014G20KT 9SM FEW023 OVC029 M02/M05 A3036 RMK SLP285

EXPIRED METARs :
  • 031900Z AUTO 02017KT 9SM SCT018 OVC027 M02/M05 A3037 RMK SLP288
  • 031852Z AUTO 02015G21KT 9SM SCT018 OVC027 M02/M05 A3037 RMK SLP287
  • 031831Z AUTO 01017G23KT 9SM SCT020 BKN024 OVC029 M01/M05 A3037 RMK SLP288
  • 031827Z AUTO 01017KT 9SM SCT020 OVC028 M01/M05 A3037 RMK SLP288
  • 031800Z AUTO 02017G23KT 9SM SCT020 OVC026 M02/M05 A3037 RMK SLP289
  • 031757Z AUTO 02015G23KT 9SM BKN018 OVC026 M01/M05 A3037 RMK SLP289
  • 031748Z AUTO 01014G21KT 9SM BKN020 OVC026 M01/M05 A3038 RMK SLP290

TAF TAF CYAY
Valid from the 03 at 20:00 until the 04 at 08:00 UTC


031938Z 0320/0408 02015G25KT P6SM OVC025
TEMPO 0320/0321 6SM -SN OVC020
FM032100 03015G25KT P6SM OVC015
TEMPO 0322/0403 3SM -SN BKN008 OVC015
BECMG 0400/0402 01012G22KT
FM040300 01012KT P6SM BKN020
TEMPO 0403/0408 BKN025
BECMG 0406/0408 34010KT RMK FCST BASED ON AUTO OBS. NXT FCST BY 040200Z



MET'MAP, your aeronautical weather chart ! - Copyright ORBIFLY December 2007 - Disclaimer

ORBIFLY MET'MAP TEAM :

Programming & Development : Alexandra Zaïnal
Concept & original design : Baudouin d'Aumeries
Assistance for programming : Marc-Olivier Méhu
Technical & hardware support : Manuel Goepfert

Contact : metmap@orbifly.com




SOURCES & CREDITS :

   NOAA